Home > Products > Valid Products > MTR

000
SAUS44 KMRX 012359 COR
MTRGDP
METAR KGDP 012351Z AUTO 14016G27KT 9SM BKN100 BKN110 26/14 A3018 RMK
AO2 PK WND 15027/2342 SLP133 60016 T02560139 10300 20217 55012





000
SAUS44 KMRX 012159 COR
MTRGDP
METAR KGDP 012151Z AUTO 34007G18KT 2SM +RA SCT048 BKN070 OVC090
23/11 A3022 RMK AO2 PK WND 24036/2120 WSHFT 2113 RAB23 SLP153 P0015
T02280106





000
SAUS44 KMRX 012159 COR
MTRGDP
METAR KGDP 012151Z AUTO 34007G18KT 2SM +RA SCT048 BKN070 OVC090
23/11 A3022 RMK AO2 PK WND 24036/2120 WSHFT 2113 RAB23 SLP153 P0015
T02280106





000
SAUS44 KMRX 012141 COR
MTRGDP
SPECI KGDP 012133Z AUTO 19018G25KT 2 1/2SM +RA FEW045 BKN080 OVC100
22/16 A3024 RMK AO2 PK WND 24036/2120 WSHFT 2113 RAB23 PRESRR P0002
T02170161





    US Dept of Commerce
    National Oceanic and Atmospheric Administration
    National Weather Service
    1325 East West Highway
    Silver Spring, MD 20910
    Page Author: NWS Internet Services Team
Disclaimer
Information Quality
Credits
Glossary
Privacy Policy
Freedom of Information Act (FOIA)
About Us
Career Opportunities